createdAt,value
2023-07-22T00:02:26.063Z,64.41
2023-07-22T00:04:53.491Z,64.33
2023-07-22T00:07:22.269Z,63.92
2023-07-22T00:09:51.521Z,63.29
2023-07-22T00:12:18.076Z,64.47
2023-07-22T00:14:46.689Z,64.06
2023-07-22T00:17:13.154Z,64.59
2023-07-22T00:19:42.183Z,64.15
2023-07-22T00:22:08.682Z,64.78
2023-07-22T00:24:42.859Z,65.14
2023-07-22T00:27:09.997Z,64.29
2023-07-22T00:29:36.620Z,64.27
2023-07-22T00:32:03.159Z,65.00
2023-07-22T00:34:29.590Z,64.74
2023-07-22T00:37:00.257Z,64.83
2023-07-22T00:39:26.688Z,64.51
2023-07-22T00:41:53.306Z,65.12
2023-07-22T00:44:19.942Z,65.07
2023-07-22T00:46:46.505Z,64.60
2023-07-22T00:49:17.879Z,64.62
2023-07-22T00:51:46.985Z,64.64
2023-07-22T00:54:15.734Z,65.17
2023-07-22T00:56:42.935Z,64.49
2023-07-22T00:59:09.428Z,64.79
2023-07-22T01:01:35.896Z,64.90
2023-07-22T01:04:02.772Z,64.35
2023-07-22T01:06:31.703Z,64.36
2023-07-22T01:08:59.628Z,64.71
2023-07-22T01:11:26.966Z,65.42
2023-07-22T01:13:59.025Z,65.42
2023-07-22T01:16:28.034Z,66.00
2023-07-22T01:18:55.859Z,67.19
2023-07-22T01:21:24.700Z,66.14
2023-07-22T01:23:51.786Z,67.33
2023-07-22T01:26:18.487Z,65.92
2023-07-22T01:28:45.109Z,66.42
2023-07-22T01:31:14.529Z,66.40
2023-07-22T01:33:41.103Z,66.53
2023-07-22T01:36:08.528Z,65.80
2023-07-22T01:38:36.750Z,66.59
2023-07-22T01:41:05.690Z,66.56
2023-07-22T01:43:32.236Z,67.52
2023-07-22T01:46:00.888Z,67.02
2023-07-22T01:48:27.478Z,67.38
2023-07-22T01:50:53.876Z,67.43
2023-07-22T01:53:21.552Z,67.38
2023-07-22T01:55:47.969Z,67.44
2023-07-22T01:58:14.380Z,67.31
2023-07-22T02:00:40.883Z,67.42
2023-07-22T02:03:07.359Z,67.38
2023-07-22T02:05:33.987Z,67.11
2023-07-22T02:08:00.649Z,68.22
2023-07-22T02:10:27.191Z,67.90
2023-07-22T02:12:53.685Z,68.29
2023-07-22T02:15:20.249Z,68.62
2023-07-22T02:17:46.897Z,68.72
2023-07-22T02:20:15.836Z,67.97
2023-07-22T02:22:42.361Z,68.04
2023-07-22T02:25:11.451Z,67.82
2023-07-22T02:27:41.526Z,68.20
2023-07-22T02:30:11.722Z,68.76
2023-07-22T02:32:40.119Z,69.67
2023-07-22T02:35:13.802Z,68.53
2023-07-22T02:37:40.533Z,68.60
2023-07-22T02:40:12.928Z,68.38
2023-07-22T02:42:40.440Z,68.75
2023-07-22T02:45:09.027Z,67.71
2023-07-22T02:47:35.697Z,68.74
2023-07-22T02:50:02.738Z,68.38
2023-07-22T02:52:29.208Z,69.05
2023-07-22T02:55:13.136Z,72.18
2023-07-22T02:57:41.039Z,76.22
2023-07-22T03:00:09.059Z,76.53
2023-07-22T03:02:41.680Z,78.00
2023-07-22T03:05:09.615Z,80.65
2023-07-22T03:07:37.226Z,82.28
2023-07-22T03:10:09.271Z,83.29
2023-07-22T03:12:36.945Z,84.99
2023-07-22T03:15:09.358Z,83.50
2023-07-22T03:17:39.228Z,82.92
2023-07-22T03:20:15.631Z,83.91
2023-07-22T03:22:42.702Z,85.78
2023-07-22T03:25:13.112Z,86.58
2023-07-22T03:27:40.554Z,85.96
2023-07-22T03:30:11.695Z,84.52
2023-07-22T03:32:38.255Z,82.95
2023-07-22T03:35:05.098Z,82.00
2023-07-22T03:37:34.194Z,83.97
2023-07-22T03:40:00.622Z,83.76
2023-07-22T03:42:27.135Z,84.60
2023-07-22T03:44:56.077Z,84.98
2023-07-22T03:47:22.535Z,84.97
2023-07-22T03:49:49.109Z,83.66
2023-07-22T03:52:19.378Z,81.75
2023-07-22T03:54:48.387Z,84.15
2023-07-22T03:57:17.365Z,83.47
2023-07-22T03:59:43.972Z,84.69
2023-07-22T04:02:10.430Z,83.09
2023-07-22T04:04:36.886Z,83.40
2023-07-22T04:07:08.895Z,82.70
2023-07-22T04:09:35.558Z,82.99
2023-07-22T04:12:02.372Z,86.78
2023-07-22T04:14:28.834Z,86.30
2023-07-22T04:16:55.356Z,85.84
2023-07-22T04:19:22.333Z,85.08
2023-07-22T04:21:48.811Z,85.27
2023-07-22T04:24:15.461Z,87.42
2023-07-22T04:26:48.447Z,86.66
2023-07-22T04:29:15.094Z,87.17
2023-07-22T04:31:43.967Z,87.80
2023-07-22T04:34:13.742Z,88.48
2023-07-22T04:36:40.330Z,86.91
2023-07-22T04:39:06.916Z,86.17
2023-07-22T04:41:33.416Z,85.48
2023-07-22T04:44:00.383Z,86.51
2023-07-22T04:46:27.708Z,86.34
2023-07-22T04:48:59.210Z,87.17
2023-07-22T04:51:25.896Z,87.33
2023-07-22T04:53:52.327Z,86.83
2023-07-22T04:56:18.810Z,87.55
2023-07-22T04:58:45.360Z,87.72
2023-07-22T05:01:11.889Z,87.42
2023-07-22T05:03:38.522Z,86.67
2023-07-22T05:06:05.138Z,86.94
2023-07-22T05:08:31.695Z,86.84
2023-07-22T05:10:58.095Z,87.25
2023-07-22T05:13:25.370Z,86.34
2023-07-22T05:15:51.870Z,86.09
2023-07-22T05:18:18.270Z,86.11
2023-07-22T05:20:47.878Z,86.68
2023-07-22T05:23:14.415Z,86.05
2023-07-22T05:25:40.835Z,86.27
2023-07-22T05:28:07.324Z,86.30
2023-07-22T05:30:36.112Z,86.08
2023-07-22T05:33:05.654Z,86.40
2023-07-22T05:35:32.205Z,86.23
2023-07-22T05:37:58.630Z,85.21
2023-07-22T05:40:25.112Z,83.88
2023-07-22T05:42:51.566Z,83.96
2023-07-22T05:45:18.103Z,85.16
2023-07-22T05:47:46.865Z,85.21
2023-07-22T05:50:13.548Z,85.54
2023-07-22T05:52:40.076Z,85.90
2023-07-22T05:55:09.008Z,85.61
2023-07-22T05:57:36.059Z,86.12
2023-07-22T06:00:09.034Z,85.20
2023-07-22T06:02:38.514Z,85.82
2023-07-22T06:05:05.320Z,85.07
2023-07-22T06:07:31.917Z,83.84
2023-07-22T06:09:58.419Z,84.90
2023-07-22T06:12:29.935Z,84.31
2023-07-22T06:14:56.974Z,82.71
2023-07-22T06:17:23.453Z,80.85
2023-07-22T06:19:49.889Z,79.57
2023-07-22T06:22:16.404Z,81.95
2023-07-22T06:24:52.699Z,81.82
2023-07-22T06:27:20.110Z,81.88
2023-07-22T06:29:46.522Z,81.08
2023-07-22T06:32:13.045Z,81.80
2023-07-22T06:34:39.505Z,81.56
2023-07-22T06:37:06.323Z,80.42
2023-07-22T06:39:32.890Z,80.84
2023-07-22T06:41:59.300Z,81.30
2023-07-22T06:44:25.953Z,81.32
2023-07-22T06:46:52.421Z,81.23
2023-07-22T06:49:18.895Z,81.50
2023-07-22T06:51:47.713Z,80.70
2023-07-22T06:54:14.319Z,79.47
2023-07-22T06:56:40.816Z,79.56
2023-07-22T06:59:07.213Z,77.90
2023-07-22T07:01:36.802Z,78.80
2023-07-22T07:04:03.288Z,79.40
2023-07-22T07:06:31.052Z,77.48
2023-07-22T07:09:01.194Z,75.82
2023-07-22T07:11:30.194Z,76.94
2023-07-22T07:13:56.738Z,75.50
2023-07-22T07:16:28.984Z,75.45
2023-07-22T07:18:56.621Z,74.66
2023-07-22T07:21:24.009Z,75.63
2023-07-22T07:23:57.090Z,74.47
2023-07-22T07:26:23.611Z,72.81
2023-07-22T07:28:51.958Z,75.64
2023-07-22T07:31:18.592Z,73.98
2023-07-22T07:33:47.806Z,74.71
2023-07-22T07:36:14.327Z,73.69
2023-07-22T07:38:40.798Z,71.96
2023-07-22T07:41:12.658Z,73.35
2023-07-22T07:43:40.629Z,71.78
2023-07-22T07:46:33.652Z,71.73
2023-07-22T07:49:03.380Z,71.69
2023-07-22T07:51:32.163Z,73.00
2023-07-22T07:54:00.352Z,72.35
2023-07-22T07:56:27.392Z,71.50
2023-07-22T07:58:58.451Z,71.88
2023-07-22T08:01:25.148Z,70.33
2023-07-22T08:03:51.788Z,71.40
2023-07-22T08:06:21.065Z,71.70
2023-07-22T08:08:47.588Z,71.15
2023-07-22T08:11:15.598Z,72.48
2023-07-22T08:13:43.823Z,71.67
2023-07-22T08:16:11.986Z,72.93
2023-07-22T08:18:39.008Z,70.98
2023-07-22T08:21:10.169Z,69.28
2023-07-22T08:23:37.996Z,68.88
2023-07-22T08:26:08.405Z,69.57
2023-07-22T08:28:35.553Z,68.92
2023-07-22T08:31:02.244Z,70.12
2023-07-22T08:33:39.645Z,69.83
2023-07-22T08:36:11.258Z,71.37
2023-07-22T08:38:38.129Z,68.72
2023-07-22T08:41:04.766Z,68.20
2023-07-22T08:43:41.148Z,68.26
2023-07-22T08:46:08.667Z,66.63
2023-07-22T08:48:41.895Z,65.45
2023-07-22T08:51:14.496Z,62.98
2023-07-22T08:53:41.929Z,65.01
2023-07-22T08:56:09.985Z,66.04
2023-07-22T08:58:37.302Z,64.03
2023-07-22T09:01:03.967Z,64.62
2023-07-22T09:03:30.785Z,61.81
2023-07-22T09:05:57.984Z,59.71
2023-07-22T09:08:25.257Z,62.73
2023-07-22T09:10:51.797Z,61.27
2023-07-22T09:13:20.482Z,56.72
2023-07-22T09:15:48.943Z,57.58
2023-07-22T09:18:16.798Z,58.12
2023-07-22T09:20:43.720Z,55.25
2023-07-22T09:23:13.998Z,59.16
2023-07-22T09:25:42.932Z,52.99
2023-07-22T09:28:11.914Z,54.76
2023-07-22T09:30:40.286Z,55.01
2023-07-22T09:33:08.910Z,54.92
2023-07-22T09:35:47.741Z,55.72
2023-07-22T09:38:18.173Z,48.55
2023-07-22T09:40:47.214Z,51.71
2023-07-22T09:43:14.970Z,52.06
2023-07-22T09:45:41.431Z,50.25
2023-07-22T09:48:10.545Z,52.41
2023-07-22T09:50:37.620Z,49.39
2023-07-22T09:53:05.067Z,46.33
2023-07-22T09:55:33.027Z,51.50
2023-07-22T09:58:11.989Z,45.13
2023-07-22T10:00:40.140Z,48.27
2023-07-22T10:03:11.077Z,47.18
2023-07-22T10:05:40.940Z,48.04
2023-07-22T10:08:07.939Z,45.61
2023-07-22T10:10:39.716Z,44.58
2023-07-22T10:13:06.855Z,46.41
2023-07-22T10:15:35.459Z,46.69
2023-07-22T10:18:08.934Z,43.71
2023-07-22T10:20:37.866Z,43.74
2023-07-22T10:23:05.003Z,44.50
2023-07-22T10:25:31.860Z,43.73
2023-07-22T10:28:00.669Z,43.73
2023-07-22T10:30:27.229Z,41.41
2023-07-22T10:32:54.735Z,39.62
2023-07-22T10:35:44.095Z,44.26
2023-07-22T10:38:12.403Z,44.08
2023-07-22T10:40:52.698Z,43.90
2023-07-22T10:43:26.602Z,38.56
2023-07-22T10:45:55.697Z,43.19
2023-07-22T10:48:26.767Z,42.13
2023-07-22T10:50:55.318Z,41.43
2023-07-22T10:53:27.723Z,42.15
2023-07-22T10:56:14.246Z,42.10
2023-07-22T10:58:47.190Z,42.30
2023-07-22T11:01:30.385Z,42.19
2023-07-22T11:04:23.666Z,42.65
2023-07-22T11:06:50.310Z,43.38
2023-07-22T11:09:29.991Z,42.28
2023-07-22T11:11:59.291Z,42.87
2023-07-22T11:14:28.323Z,44.28
2023-07-22T11:16:57.644Z,42.58
2023-07-22T11:19:27.830Z,42.13
2023-07-22T11:21:55.634Z,41.86
2023-07-22T11:24:23.874Z,45.39
2023-07-22T11:26:51.365Z,43.58
2023-07-22T11:29:18.056Z,42.57
2023-07-22T11:31:47.282Z,41.20
2023-07-22T11:34:18.295Z,41.01
2023-07-22T11:36:45.921Z,39.87
2023-07-22T11:39:15.450Z,39.13
2023-07-22T11:41:43.720Z,39.15
2023-07-22T11:44:14.376Z,41.07
2023-07-22T11:46:50.218Z,39.66
2023-07-22T11:49:38.529Z,40.53
2023-07-22T11:52:06.453Z,40.36
2023-07-22T11:54:34.761Z,42.02
2023-07-22T11:57:22.727Z,41.83
2023-07-22T11:59:51.797Z,41.65
2023-07-22T12:02:19.035Z,43.30
2023-07-22T12:05:01.899Z,43.33
2023-07-22T12:07:33.205Z,41.30
2023-07-22T12:10:02.002Z,41.77
2023-07-22T12:12:34.604Z,42.01
2023-07-22T12:15:14.147Z,42.94
2023-07-22T12:17:57.814Z,42.21
2023-07-22T12:20:31.139Z,41.59
2023-07-22T12:23:01.990Z,42.12
2023-07-22T12:25:28.687Z,40.71
2023-07-22T12:27:55.314Z,37.79
2023-07-22T12:30:22.333Z,41.82
2023-07-22T12:32:49.462Z,43.09
2023-07-22T12:35:16.628Z,43.50
2023-07-22T12:37:47.969Z,41.79
2023-07-22T12:40:15.196Z,41.82
2023-07-22T12:42:42.111Z,41.25
2023-07-22T12:45:09.407Z,43.49
2023-07-22T12:47:36.401Z,39.45
2023-07-22T12:50:02.966Z,41.70
2023-07-22T12:52:31.845Z,40.54
2023-07-22T12:54:58.666Z,40.78
2023-07-22T12:57:25.074Z,38.62
2023-07-22T12:59:51.624Z,38.28
2023-07-22T13:02:18.209Z,39.14
2023-07-22T13:04:45.263Z,38.16
2023-07-22T13:07:11.958Z,40.09
2023-07-22T13:09:41.739Z,38.66
2023-07-22T13:12:08.412Z,38.12
2023-07-22T13:14:36.881Z,39.80
2023-07-22T13:17:05.592Z,39.22
2023-07-22T13:19:33.348Z,39.55
2023-07-22T13:21:59.767Z,39.70
2023-07-22T13:24:26.170Z,38.88
2023-07-22T13:26:52.641Z,37.30
2023-07-22T13:29:19.206Z,36.45
2023-07-22T13:31:45.691Z,36.80
2023-07-22T13:34:12.232Z,35.04
2023-07-22T13:36:41.150Z,38.12
2023-07-22T13:39:07.724Z,35.42
2023-07-22T13:41:36.708Z,37.41
2023-07-22T13:44:03.890Z,35.33
2023-07-22T13:46:32.628Z,35.87
2023-07-22T13:48:59.079Z,37.04
2023-07-22T13:51:25.632Z,38.35
2023-07-22T13:53:55.961Z,36.15
2023-07-22T13:56:22.397Z,34.10
2023-07-22T13:58:48.895Z,38.36
2023-07-22T14:01:15.303Z,36.66
2023-07-22T14:03:41.731Z,34.96
2023-07-22T14:06:09.346Z,35.52
2023-07-22T14:08:35.764Z,35.59
2023-07-22T14:11:02.219Z,35.20
2023-07-22T14:13:28.745Z,35.52
2023-07-22T14:15:56.795Z,35.27
2023-07-22T14:18:25.817Z,35.15
2023-07-22T14:20:52.325Z,34.37
2023-07-22T14:23:18.757Z,34.00
2023-07-22T14:25:45.206Z,33.84
2023-07-22T14:28:11.786Z,34.92
2023-07-22T14:30:38.320Z,32.57
2023-07-22T14:33:04.768Z,34.76
2023-07-22T14:35:33.643Z,34.48
2023-07-22T14:38:06.048Z,35.35
2023-07-22T14:40:32.477Z,36.65
2023-07-22T14:42:59.295Z,35.79
2023-07-22T14:45:25.743Z,35.48
2023-07-22T14:47:52.186Z,33.33
2023-07-22T14:50:24.069Z,34.21
2023-07-22T14:52:50.563Z,35.10
2023-07-22T14:55:17.054Z,34.04
2023-07-22T14:57:43.614Z,34.18
2023-07-22T15:00:11.583Z,33.45
2023-07-22T15:02:38.075Z,34.61
2023-07-22T15:05:04.989Z,35.88
2023-07-22T15:07:31.489Z,35.17
2023-07-22T15:10:01.126Z,36.36
2023-07-22T15:12:27.719Z,35.83
2023-07-22T15:14:54.224Z,32.07
2023-07-22T15:17:22.368Z,35.03
2023-07-22T15:19:50.559Z,36.07
2023-07-22T15:22:17.470Z,34.96
2023-07-22T15:24:43.892Z,36.27
2023-07-22T15:27:10.878Z,35.59
2023-07-22T15:29:37.415Z,34.48
2023-07-22T15:32:04.206Z,35.36
2023-07-22T15:34:35.270Z,35.42
2023-07-22T15:37:04.248Z,34.50
2023-07-22T15:39:30.777Z,35.97
2023-07-22T15:41:59.594Z,35.64
2023-07-22T15:44:28.962Z,33.96
2023-07-22T15:46:55.884Z,35.27
2023-07-22T15:49:22.424Z,35.92
2023-07-22T15:51:49.153Z,36.56
2023-07-22T15:54:19.108Z,36.29
2023-07-22T15:56:45.611Z,35.23
2023-07-22T15:59:14.196Z,34.92
2023-07-22T16:01:40.996Z,36.18
2023-07-22T16:04:08.268Z,37.77
2023-07-22T16:06:34.998Z,36.54
2023-07-22T16:09:01.783Z,37.55
2023-07-22T16:11:28.722Z,36.77
2023-07-22T16:13:55.611Z,36.95
2023-07-22T16:16:22.315Z,37.09
2023-07-22T16:18:48.855Z,38.00
2023-07-22T16:21:15.407Z,37.90
2023-07-22T16:23:44.291Z,37.14
2023-07-22T16:26:10.855Z,38.42
2023-07-22T16:28:45.035Z,35.34
2023-07-22T16:31:13.728Z,35.88
2023-07-22T16:33:40.275Z,37.32
2023-07-22T16:36:06.761Z,36.39
2023-07-22T16:38:33.238Z,34.83
2023-07-22T16:41:02.248Z,36.36
2023-07-22T16:43:28.775Z,36.24
2023-07-22T16:45:59.998Z,36.63
2023-07-22T16:48:26.691Z,36.90
2023-07-22T16:50:53.263Z,36.87
2023-07-22T16:53:19.752Z,38.27
2023-07-22T16:55:46.316Z,37.31
2023-07-22T16:58:12.771Z,38.17
2023-07-22T17:00:39.337Z,37.42
2023-07-22T17:03:06.193Z,39.35
2023-07-22T17:05:33.216Z,38.94
2023-07-22T17:08:01.329Z,38.52
2023-07-22T17:10:28.308Z,38.38
2023-07-22T17:12:57.097Z,39.40
2023-07-22T17:15:23.791Z,36.35
2023-07-22T17:17:50.332Z,37.16
2023-07-22T17:20:17.217Z,36.24
2023-07-22T17:22:43.680Z,36.62
2023-07-22T17:25:10.178Z,38.57
2023-07-22T17:27:38.958Z,37.68
2023-07-22T17:30:06.019Z,39.90
2023-07-22T17:32:32.671Z,36.98
2023-07-22T17:34:59.288Z,38.42
2023-07-22T17:37:35.496Z,37.82
2023-07-22T17:40:02.119Z,37.63
2023-07-22T17:42:28.651Z,36.29
2023-07-22T17:44:56.504Z,38.25
2023-07-22T17:47:23.214Z,38.09
2023-07-22T17:49:49.811Z,38.70
2023-07-22T17:52:16.288Z,39.14
2023-07-22T17:54:45.902Z,39.06
2023-07-22T17:57:15.299Z,39.76
2023-07-22T17:59:42.364Z,39.51
2023-07-22T18:02:09.026Z,39.19
2023-07-22T18:04:35.947Z,37.92
2023-07-22T18:07:04.038Z,38.07
2023-07-22T18:09:32.739Z,38.99
2023-07-22T18:11:59.168Z,38.81
2023-07-22T18:14:25.747Z,39.37
2023-07-22T18:16:52.234Z,38.81
2023-07-22T18:19:18.773Z,39.64
2023-07-22T18:21:45.254Z,40.40
2023-07-22T18:24:11.752Z,40.49
2023-07-22T18:26:38.253Z,40.81
2023-07-22T18:29:05.215Z,39.43
2023-07-22T18:31:31.892Z,41.50
2023-07-22T18:33:58.554Z,40.38
2023-07-22T18:36:25.124Z,40.00
2023-07-22T18:38:51.574Z,41.49
2023-07-22T18:41:18.089Z,42.56
2023-07-22T18:43:47.579Z,42.19
2023-07-22T18:46:19.818Z,41.96
2023-07-22T18:48:49.840Z,43.20
2023-07-22T18:51:16.913Z,42.22
2023-07-22T18:53:43.879Z,43.06
2023-07-22T18:56:10.536Z,43.56
2023-07-22T18:58:37.128Z,44.45
2023-07-22T19:01:03.603Z,44.52
2023-07-22T19:03:30.624Z,43.00
2023-07-22T19:05:59.217Z,43.96
2023-07-22T19:08:28.676Z,43.93
2023-07-22T19:10:55.567Z,44.92
2023-07-22T19:13:24.299Z,44.18
2023-07-22T19:15:54.522Z,45.15
2023-07-22T19:18:21.074Z,44.65
2023-07-22T19:20:58.603Z,44.20
2023-07-22T19:23:26.880Z,45.81
2023-07-22T19:25:56.606Z,45.03
2023-07-22T19:28:23.604Z,45.86
2023-07-22T19:30:57.659Z,45.92
2023-07-22T19:33:25.072Z,46.57
2023-07-22T19:36:23.139Z,46.21
2023-07-22T19:38:49.651Z,46.81
2023-07-22T19:41:18.378Z,47.22
2023-07-22T19:43:48.439Z,47.16
2023-07-22T19:46:16.852Z,46.75
2023-07-22T19:48:45.926Z,47.74
2023-07-22T19:51:14.864Z,46.80
2023-07-22T19:53:45.946Z,48.07
2023-07-22T19:56:13.384Z,48.75
2023-07-22T19:58:40.815Z,47.30
2023-07-22T20:01:07.457Z,47.78
2023-07-22T20:03:40.996Z,47.75
2023-07-22T20:06:09.378Z,47.86
2023-07-22T20:08:40.601Z,47.42
2023-07-22T20:11:07.557Z,48.10
2023-07-22T20:13:34.454Z,49.21
2023-07-22T20:16:03.276Z,48.75
2023-07-22T20:18:29.991Z,49.43
2023-07-22T20:20:56.901Z,48.42
2023-07-22T20:23:23.310Z,49.84
2023-07-22T20:25:49.686Z,49.89
2023-07-22T20:28:16.239Z,50.83
2023-07-22T20:30:42.694Z,50.15
2023-07-22T20:33:09.303Z,50.25
2023-07-22T20:35:36.213Z,49.90
2023-07-22T20:38:05.099Z,49.74
2023-07-22T20:40:31.566Z,51.13
2023-07-22T20:42:58.054Z,50.92
2023-07-22T20:45:24.616Z,50.80
2023-07-22T20:47:51.414Z,51.86
2023-07-22T20:50:18.278Z,51.86
2023-07-22T20:52:44.810Z,51.72
2023-07-22T20:55:11.259Z,52.38
2023-07-22T20:57:40.972Z,51.96
2023-07-22T21:00:10.725Z,52.35
2023-07-22T21:02:37.310Z,53.34
2023-07-22T21:05:06.848Z,52.60
2023-07-22T21:07:33.413Z,53.11
2023-07-22T21:10:02.280Z,53.80
2023-07-22T21:12:29.397Z,53.71
2023-07-22T21:14:55.971Z,53.73
2023-07-22T21:17:23.581Z,53.46
2023-07-22T21:20:00.050Z,52.07
2023-07-22T21:22:26.511Z,53.09
2023-07-22T21:24:53.032Z,53.15
2023-07-22T21:27:20.109Z,52.22
2023-07-22T21:29:47.569Z,52.51
2023-07-22T21:32:16.286Z,53.12
2023-07-22T21:34:43.213Z,52.02
2023-07-22T21:37:09.622Z,52.40
2023-07-22T21:39:38.391Z,53.48
2023-07-22T21:42:06.462Z,52.41
2023-07-22T21:44:32.905Z,52.21
2023-07-22T21:46:59.449Z,52.97
2023-07-22T21:49:25.921Z,53.15
2023-07-22T21:51:55.019Z,52.75
2023-07-22T21:54:21.518Z,53.06
2023-07-22T21:56:51.020Z,52.13
2023-07-22T21:59:17.451Z,52.73
2023-07-22T22:01:46.610Z,53.20
2023-07-22T22:04:13.108Z,52.39
2023-07-22T22:06:44.259Z,53.16
2023-07-22T22:09:11.237Z,53.53
2023-07-22T22:11:44.553Z,53.71
2023-07-22T22:14:11.303Z,53.45
2023-07-22T22:16:38.008Z,54.67
2023-07-22T22:19:04.636Z,54.77
2023-07-22T22:21:31.073Z,54.84
2023-07-22T22:23:57.498Z,55.39
2023-07-22T22:26:23.970Z,55.49
2023-07-22T22:28:52.211Z,55.74
2023-07-22T22:31:19.475Z,56.50
2023-07-22T22:33:48.490Z,56.53
2023-07-22T22:36:15.041Z,56.14
2023-07-22T22:38:41.425Z,55.61
2023-07-22T22:41:07.887Z,55.36
2023-07-22T22:43:38.909Z,54.66
2023-07-22T22:46:12.589Z,55.26
2023-07-22T22:48:39.031Z,56.07
2023-07-22T22:51:07.125Z,54.83
2023-07-22T22:53:33.576Z,55.64
2023-07-22T22:56:04.208Z,54.85
2023-07-22T22:58:30.644Z,55.01
2023-07-22T23:00:59.455Z,55.61
2023-07-22T23:03:28.092Z,56.64
2023-07-22T23:05:54.561Z,56.18
2023-07-22T23:08:21.062Z,56.50
2023-07-22T23:10:49.715Z,56.42
2023-07-22T23:13:18.715Z,56.47
2023-07-22T23:15:47.326Z,56.54
2023-07-22T23:18:15.031Z,55.77
2023-07-22T23:20:43.240Z,56.56
2023-07-22T23:23:09.842Z,55.81
2023-07-22T23:25:36.242Z,56.58
2023-07-22T23:28:02.738Z,57.23
2023-07-22T23:30:34.491Z,56.73
2023-07-22T23:33:01.489Z,57.40
2023-07-22T23:35:30.438Z,56.75
2023-07-22T23:37:59.213Z,57.79
2023-07-22T23:40:30.629Z,58.07
2023-07-22T23:42:57.176Z,57.75
2023-07-22T23:45:23.754Z,58.40
2023-07-22T23:47:50.177Z,58.13
2023-07-22T23:50:17.500Z,58.71
2023-07-22T23:52:43.950Z,57.49
2023-07-22T23:55:10.502Z,57.35
2023-07-22T23:57:36.897Z,57.62
